sensor_id;sensor_type;location;lat;lon;timestamp;P1;durP1;ratioP1;P2;durP2;ratioP2
63050;SDS011;49136;47.416;19.402;2023-06-10T00:00:39;32.95;;;13.95;;
63050;SDS011;49136;47.416;19.402;2023-06-10T00:03:07;39.80;;;14.88;;
63050;SDS011;49136;47.416;19.402;2023-06-10T00:05:34;33.63;;;14.82;;
63050;SDS011;49136;47.416;19.402;2023-06-10T00:07:59;32.30;;;14.05;;
63050;SDS011;49136;47.416;19.402;2023-06-10T00:10:26;36.10;;;13.43;;
63050;SDS011;49136;47.416;19.402;2023-06-10T00:12:52;36.83;;;14.02;;
63050;SDS011;49136;47.416;19.402;2023-06-10T00:15:17;34.60;;;14.30;;
63050;SDS011;49136;47.416;19.402;2023-06-10T00:17:43;38.65;;;16.30;;
63050;SDS011;49136;47.416;19.402;2023-06-10T00:20:09;35.53;;;14.68;;
63050;SDS011;49136;47.416;19.402;2023-06-10T00:22:38;37.92;;;14.68;;
63050;SDS011;49136;47.416;19.402;2023-06-10T00:25:05;32.22;;;13.45;;
63050;SDS011;49136;47.416;19.402;2023-06-10T00:27:31;32.33;;;13.25;;
63050;SDS011;49136;47.416;19.402;2023-06-10T00:30:00;34.38;;;13.98;;
63050;SDS011;49136;47.416;19.402;2023-06-10T00:32:29;28.92;;;12.07;;
63050;SDS011;49136;47.416;19.402;2023-06-10T00:34:55;29.75;;;12.50;;
63050;SDS011;49136;47.416;19.402;2023-06-10T00:37:20;28.95;;;12.32;;
63050;SDS011;49136;47.416;19.402;2023-06-10T00:39:45;25.48;;;11.70;;
63050;SDS011;49136;47.416;19.402;2023-06-10T00:42:11;24.00;;;11.65;;
63050;SDS011;49136;47.416;19.402;2023-06-10T00:44:36;23.60;;;11.40;;
63050;SDS011;49136;47.416;19.402;2023-06-10T00:47:02;30.00;;;12.55;;
63050;SDS011;49136;47.416;19.402;2023-06-10T00:49:28;25.38;;;11.45;;
63050;SDS011;49136;47.416;19.402;2023-06-10T00:51:53;28.33;;;11.10;;
63050;SDS011;49136;47.416;19.402;2023-06-10T00:54:19;27.77;;;11.73;;
63050;SDS011;49136;47.416;19.402;2023-06-10T00:56:46;30.10;;;11.13;;
63050;SDS011;49136;47.416;19.402;2023-06-10T00:59:12;25.27;;;11.23;;
63050;SDS011;49136;47.416;19.402;2023-06-10T01:01:39;28.75;;;12.10;;
63050;SDS011;49136;47.416;19.402;2023-06-10T01:04:05;28.60;;;11.70;;
63050;SDS011;49136;47.416;19.402;2023-06-10T01:09:11;27.63;;;12.25;;
63050;SDS011;49136;47.416;19.402;2023-06-10T01:11:46;40.97;;;11.85;;
63050;SDS011;49136;47.416;19.402;2023-06-10T01:14:15;27.67;;;11.07;;
63050;SDS011;49136;47.416;19.402;2023-06-10T01:16:42;33.85;;;12.48;;
63050;SDS011;49136;47.416;19.402;2023-06-10T01:19:11;25.15;;;11.52;;
63050;SDS011;49136;47.416;19.402;2023-06-10T01:21:38;26.05;;;10.00;;
63050;SDS011;49136;47.416;19.402;2023-06-10T01:24:04;31.20;;;11.77;;
63050;SDS011;49136;47.416;19.402;2023-06-10T01:26:33;33.13;;;12.52;;
63050;SDS011;49136;47.416;19.402;2023-06-10T01:29:17;25.73;;;10.90;;
63050;SDS011;49136;47.416;19.402;2023-06-10T01:31:52;28.83;;;11.70;;
63050;SDS011;49136;47.416;19.402;2023-06-10T01:34:26;28.50;;;12.93;;
63050;SDS011;49136;47.416;19.402;2023-06-10T01:36:53;29.55;;;12.75;;
63050;SDS011;49136;47.416;19.402;2023-06-10T01:39:21;33.70;;;12.43;;
63050;SDS011;49136;47.416;19.402;2023-06-10T01:41:48;26.05;;;12.52;;
63050;SDS011;49136;47.416;19.402;2023-06-10T01:44:19;28.10;;;12.27;;
63050;SDS011;49136;47.416;19.402;2023-06-10T01:46:45;29.50;;;11.85;;
63050;SDS011;49136;47.416;19.402;2023-06-10T01:49:11;26.95;;;12.50;;
63050;SDS011;49136;47.416;19.402;2023-06-10T01:51:37;31.88;;;12.20;;
63050;SDS011;49136;47.416;19.402;2023-06-10T01:54:02;23.45;;;11.40;;
63050;SDS011;49136;47.416;19.402;2023-06-10T01:56:28;31.25;;;13.68;;
63050;SDS011;49136;47.416;19.402;2023-06-10T01:58:54;38.72;;;12.20;;
63050;SDS011;49136;47.416;19.402;2023-06-10T02:01:25;27.30;;;12.98;;
63050;SDS011;49136;47.416;19.402;2023-06-10T02:03:51;35.53;;;13.10;;
63050;SDS011;49136;47.416;19.402;2023-06-10T02:06:17;27.48;;;12.07;;
63050;SDS011;49136;47.416;19.402;2023-06-10T02:08:43;26.50;;;11.38;;
63050;SDS011;49136;47.416;19.402;2023-06-10T02:11:08;26.77;;;11.35;;
63050;SDS011;49136;47.416;19.402;2023-06-10T02:13:33;24.30;;;11.15;;
63050;SDS011;49136;47.416;19.402;2023-06-10T02:16:00;27.83;;;11.80;;
63050;SDS011;49136;47.416;19.402;2023-06-10T02:18:26;26.35;;;12.32;;
63050;SDS011;49136;47.416;19.402;2023-06-10T02:20:53;26.20;;;12.05;;
63050;SDS011;49136;47.416;19.402;2023-06-10T02:23:19;33.78;;;12.90;;
63050;SDS011;49136;47.416;19.402;2023-06-10T02:25:44;38.08;;;17.15;;
63050;SDS011;49136;47.416;19.402;2023-06-10T02:28:09;27.95;;;13.95;;
63050;SDS011;49136;47.416;19.402;2023-06-10T02:30:35;27.17;;;12.77;;
63050;SDS011;49136;47.416;19.402;2023-06-10T02:33:01;27.40;;;13.02;;
63050;SDS011;49136;47.416;19.402;2023-06-10T02:35:27;38.67;;;13.68;;
63050;SDS011;49136;47.416;19.402;2023-06-10T02:37:52;31.20;;;12.82;;
63050;SDS011;49136;47.416;19.402;2023-06-10T02:40:18;35.30;;;12.95;;
63050;SDS011;49136;47.416;19.402;2023-06-10T02:42:43;30.13;;;12.93;;
63050;SDS011;49136;47.416;19.402;2023-06-10T02:45:09;30.75;;;11.82;;
63050;SDS011;49136;47.416;19.402;2023-06-10T02:47:34;33.33;;;12.38;;
63050;SDS011;49136;47.416;19.402;2023-06-10T02:50:02;29.88;;;13.02;;
63050;SDS011;49136;47.416;19.402;2023-06-10T02:52:28;30.85;;;12.77;;
63050;SDS011;49136;47.416;19.402;2023-06-10T02:54:55;31.02;;;12.95;;
63050;SDS011;49136;47.416;19.402;2023-06-10T02:57:20;37.17;;;14.77;;
63050;SDS011;49136;47.416;19.402;2023-06-10T02:59:45;43.33;;;16.50;;
63050;SDS011;49136;47.416;19.402;2023-06-10T03:02:11;43.03;;;15.95;;
63050;SDS011;49136;47.416;19.402;2023-06-10T03:04:37;63.90;;;17.10;;
63050;SDS011;49136;47.416;19.402;2023-06-10T03:07:04;92.68;;;16.80;;
63050;SDS011;49136;47.416;19.402;2023-06-10T03:09:32;70.28;;;16.25;;
63050;SDS011;49136;47.416;19.402;2023-06-10T03:11:57;62.17;;;18.17;;
63050;SDS011;49136;47.416;19.402;2023-06-10T03:14:25;54.38;;;17.48;;
63050;SDS011;49136;47.416;19.402;2023-06-10T03:16:50;56.10;;;17.60;;
63050;SDS011;49136;47.416;19.402;2023-06-10T03:19:16;49.38;;;18.25;;
63050;SDS011;49136;47.416;19.402;2023-06-10T03:21:43;59.63;;;19.63;;
63050;SDS011;49136;47.416;19.402;2023-06-10T03:24:09;51.58;;;18.75;;
63050;SDS011;49136;47.416;19.402;2023-06-10T03:26:35;52.58;;;18.38;;
63050;SDS011;49136;47.416;19.402;2023-06-10T03:29:24;47.97;;;17.55;;
63050;SDS011;49136;47.416;19.402;2023-06-10T03:31:49;44.78;;;16.85;;
63050;SDS011;49136;47.416;19.402;2023-06-10T03:34:15;53.60;;;19.23;;
63050;SDS011;49136;47.416;19.402;2023-06-10T03:36:40;46.88;;;17.50;;
63050;SDS011;49136;47.416;19.402;2023-06-10T03:39:07;48.20;;;19.52;;
63050;SDS011;49136;47.416;19.402;2023-06-10T03:41:34;45.90;;;17.63;;
63050;SDS011;49136;47.416;19.402;2023-06-10T03:43:59;42.65;;;16.63;;
63050;SDS011;49136;47.416;19.402;2023-06-10T03:46:25;42.33;;;15.77;;
63050;SDS011;49136;47.416;19.402;2023-06-10T03:48:51;42.10;;;16.63;;
63050;SDS011;49136;47.416;19.402;2023-06-10T03:51:16;38.75;;;15.85;;
63050;SDS011;49136;47.416;19.402;2023-06-10T03:53:41;44.35;;;17.45;;
63050;SDS011;49136;47.416;19.402;2023-06-10T03:56:07;42.00;;;17.15;;
63050;SDS011;49136;47.416;19.402;2023-06-10T03:58:32;37.60;;;16.02;;
63050;SDS011;49136;47.416;19.402;2023-06-10T04:00:58;39.78;;;16.33;;
63050;SDS011;49136;47.416;19.402;2023-06-10T04:03:24;37.13;;;15.82;;
63050;SDS011;49136;47.416;19.402;2023-06-10T04:05:49;39.33;;;16.65;;
63050;SDS011;49136;47.416;19.402;2023-06-10T04:08:15;41.85;;;16.05;;
63050;SDS011;49136;47.416;19.402;2023-06-10T04:10:41;38.42;;;16.27;;
63050;SDS011;49136;47.416;19.402;2023-06-10T04:13:06;35.72;;;16.65;;
63050;SDS011;49136;47.416;19.402;2023-06-10T04:15:31;39.42;;;16.15;;
63050;SDS011;49136;47.416;19.402;2023-06-10T04:17:58;37.25;;;15.02;;
63050;SDS011;49136;47.416;19.402;2023-06-10T04:20:24;44.95;;;15.85;;
63050;SDS011;49136;47.416;19.402;2023-06-10T04:22:50;35.90;;;16.42;;
63050;SDS011;49136;47.416;19.402;2023-06-10T04:25:15;37.50;;;16.88;;
63050;SDS011;49136;47.416;19.402;2023-06-10T04:27:41;35.67;;;16.60;;
63050;SDS011;49136;47.416;19.402;2023-06-10T04:30:07;33.67;;;16.30;;
63050;SDS011;49136;47.416;19.402;2023-06-10T04:32:32;36.50;;;16.25;;
63050;SDS011;49136;47.416;19.402;2023-06-10T04:34:59;36.65;;;16.17;;
63050;SDS011;49136;47.416;19.402;2023-06-10T04:37:25;35.78;;;15.82;;
63050;SDS011;49136;47.416;19.402;2023-06-10T04:39:50;37.03;;;15.30;;
63050;SDS011;49136;47.416;19.402;2023-06-10T04:42:16;35.70;;;15.73;;
63050;SDS011;49136;47.416;19.402;2023-06-10T04:44:41;29.52;;;14.65;;
63050;SDS011;49136;47.416;19.402;2023-06-10T04:47:08;35.05;;;15.40;;
63050;SDS011;49136;47.416;19.402;2023-06-10T04:49:34;38.55;;;15.57;;
63050;SDS011;49136;47.416;19.402;2023-06-10T04:52:00;35.40;;;15.80;;
63050;SDS011;49136;47.416;19.402;2023-06-10T04:54:26;39.90;;;16.58;;
63050;SDS011;49136;47.416;19.402;2023-06-10T04:56:51;36.35;;;16.33;;
63050;SDS011;49136;47.416;19.402;2023-06-10T04:59:17;49.78;;;17.73;;
63050;SDS011;49136;47.416;19.402;2023-06-10T05:01:42;40.95;;;16.38;;
63050;SDS011;49136;47.416;19.402;2023-06-10T05:04:08;43.20;;;16.92;;
63050;SDS011;49136;47.416;19.402;2023-06-10T05:06:33;43.83;;;17.63;;
63050;SDS011;49136;47.416;19.402;2023-06-10T05:09:00;43.20;;;16.55;;
63050;SDS011;49136;47.416;19.402;2023-06-10T05:11:26;45.72;;;18.67;;
63050;SDS011;49136;47.416;19.402;2023-06-10T05:13:51;51.00;;;17.90;;
63050;SDS011;49136;47.416;19.402;2023-06-10T05:16:17;41.88;;;18.13;;
63050;SDS011;49136;47.416;19.402;2023-06-10T05:18:42;60.42;;;21.98;;
63050;SDS011;49136;47.416;19.402;2023-06-10T05:21:07;55.97;;;19.80;;
63050;SDS011;49136;47.416;19.402;2023-06-10T05:23:36;65.68;;;22.88;;
63050;SDS011;49136;47.416;19.402;2023-06-10T05:26:01;58.10;;;21.83;;
63050;SDS011;49136;47.416;19.402;2023-06-10T05:28:27;63.60;;;23.13;;
63050;SDS011;49136;47.416;19.402;2023-06-10T05:30:55;81.45;;;25.42;;
63050;SDS011;49136;47.416;19.402;2023-06-10T05:33:22;70.90;;;23.83;;
63050;SDS011;49136;47.416;19.402;2023-06-10T05:35:47;79.88;;;25.85;;
63050;SDS011;49136;47.416;19.402;2023-06-10T05:38:12;74.35;;;26.10;;
63050;SDS011;49136;47.416;19.402;2023-06-10T05:40:38;71.80;;;26.13;;
63050;SDS011;49136;47.416;19.402;2023-06-10T05:43:04;71.97;;;24.05;;
63050;SDS011;49136;47.416;19.402;2023-06-10T05:46:12;70.50;;;24.10;;
63050;SDS011;49136;47.416;19.402;2023-06-10T05:48:42;82.40;;;24.67;;
63050;SDS011;49136;47.416;19.402;2023-06-10T05:51:24;78.53;;;26.38;;
63050;SDS011;49136;47.416;19.402;2023-06-10T05:53:55;77.80;;;25.60;;
63050;SDS011;49136;47.416;19.402;2023-06-10T05:56:23;78.47;;;25.75;;
63050;SDS011;49136;47.416;19.402;2023-06-10T05:58:49;78.22;;;27.15;;
63050;SDS011;49136;47.416;19.402;2023-06-10T06:01:39;72.65;;;26.58;;
63050;SDS011;49136;47.416;19.402;2023-06-10T06:04:04;69.10;;;26.05;;
63050;SDS011;49136;47.416;19.402;2023-06-10T06:06:31;73.68;;;25.20;;
63050;SDS011;49136;47.416;19.402;2023-06-10T06:08:57;59.78;;;22.77;;
63050;SDS011;49136;47.416;19.402;2023-06-10T06:11:22;65.28;;;26.50;;
63050;SDS011;49136;47.416;19.402;2023-06-10T06:13:48;60.75;;;23.92;;
63050;SDS011;49136;47.416;19.402;2023-06-10T06:16:13;55.63;;;23.90;;
63050;SDS011;49136;47.416;19.402;2023-06-10T06:18:39;57.53;;;23.83;;
63050;SDS011;49136;47.416;19.402;2023-06-10T06:21:04;59.08;;;25.27;;
63050;SDS011;49136;47.416;19.402;2023-06-10T06:23:30;57.42;;;25.38;;
63050;SDS011;49136;47.416;19.402;2023-06-10T06:25:55;61.15;;;25.95;;
63050;SDS011;49136;47.416;19.402;2023-06-10T06:28:21;64.43;;;27.10;;
63050;SDS011;49136;47.416;19.402;2023-06-10T06:30:47;78.13;;;29.48;;
63050;SDS011;49136;47.416;19.402;2023-06-10T06:33:19;71.82;;;29.02;;
63050;SDS011;49136;47.416;19.402;2023-06-10T06:35:54;66.07;;;29.38;;
63050;SDS011;49136;47.416;19.402;2023-06-10T06:38:20;70.72;;;30.08;;
63050;SDS011;49136;47.416;19.402;2023-06-10T06:40:46;65.88;;;30.55;;
63050;SDS011;49136;47.416;19.402;2023-06-10T06:43:13;73.53;;;29.52;;
63050;SDS011;49136;47.416;19.402;2023-06-10T06:45:38;72.38;;;28.75;;
63050;SDS011;49136;47.416;19.402;2023-06-10T06:48:05;67.20;;;30.27;;
63050;SDS011;49136;47.416;19.402;2023-06-10T06:50:38;69.80;;;31.75;;
63050;SDS011;49136;47.416;19.402;2023-06-10T06:53:06;76.40;;;31.30;;
63050;SDS011;49136;47.416;19.402;2023-06-10T06:55:32;69.82;;;31.65;;
63050;SDS011;49136;47.416;19.402;2023-06-10T06:57:59;63.38;;;29.58;;
63050;SDS011;49136;47.416;19.402;2023-06-10T07:00:27;71.45;;;30.73;;
63050;SDS011;49136;47.416;19.402;2023-06-10T07:02:53;63.13;;;29.00;;
63050;SDS011;49136;47.416;19.402;2023-06-10T07:05:18;62.03;;;27.50;;
63050;SDS011;49136;47.416;19.402;2023-06-10T07:07:44;63.17;;;30.23;;
63050;SDS011;49136;47.416;19.402;2023-06-10T07:10:09;57.75;;;28.13;;
63050;SDS011;49136;47.416;19.402;2023-06-10T07:12:35;55.55;;;26.67;;
63050;SDS011;49136;47.416;19.402;2023-06-10T07:15:00;51.33;;;26.42;;
63050;SDS011;49136;47.416;19.402;2023-06-10T07:17:26;52.60;;;25.10;;
63050;SDS011;49136;47.416;19.402;2023-06-10T07:19:52;55.97;;;27.48;;
63050;SDS011;49136;47.416;19.402;2023-06-10T07:22:17;47.28;;;24.55;;
63050;SDS011;49136;47.416;19.402;2023-06-10T07:24:42;51.40;;;26.02;;
63050;SDS011;49136;47.416;19.402;2023-06-10T07:27:08;50.00;;;24.63;;
63050;SDS011;49136;47.416;19.402;2023-06-10T07:29:34;47.58;;;23.60;;
63050;SDS011;49136;47.416;19.402;2023-06-10T07:32:00;42.95;;;23.00;;
63050;SDS011;49136;47.416;19.402;2023-06-10T07:34:27;41.78;;;22.40;;
63050;SDS011;49136;47.416;19.402;2023-06-10T07:36:54;39.17;;;21.10;;
63050;SDS011;49136;47.416;19.402;2023-06-10T07:39:19;38.40;;;21.25;;
63050;SDS011;49136;47.416;19.402;2023-06-10T07:41:45;22.95;;;16.05;;
63050;SDS011;49136;47.416;19.402;2023-06-10T07:44:10;32.95;;;19.35;;
63050;SDS011;49136;47.416;19.402;2023-06-10T07:46:36;38.38;;;21.60;;
63050;SDS011;49136;47.416;19.402;2023-06-10T07:49:01;38.38;;;22.63;;
63050;SDS011;49136;47.416;19.402;2023-06-10T07:51:27;44.58;;;22.70;;
63050;SDS011;49136;47.416;19.402;2023-06-10T07:53:52;37.40;;;21.90;;
63050;SDS011;49136;47.416;19.402;2023-06-10T07:56:18;39.83;;;21.30;;
63050;SDS011;49136;47.416;19.402;2023-06-10T07:58:45;35.17;;;21.83;;
63050;SDS011;49136;47.416;19.402;2023-06-10T08:01:11;40.92;;;23.20;;
63050;SDS011;49136;47.416;19.402;2023-06-10T08:03:36;35.78;;;22.15;;
63050;SDS011;49136;47.416;19.402;2023-06-10T08:06:01;44.45;;;23.15;;
63050;SDS011;49136;47.416;19.402;2023-06-10T08:08:27;38.20;;;21.15;;
63050;SDS011;49136;47.416;19.402;2023-06-10T08:10:53;50.83;;;23.55;;
63050;SDS011;49136;47.416;19.402;2023-06-10T08:13:18;42.17;;;24.55;;
63050;SDS011;49136;47.416;19.402;2023-06-10T08:15:43;33.33;;;20.80;;
63050;SDS011;49136;47.416;19.402;2023-06-10T08:18:09;35.35;;;20.92;;
63050;SDS011;49136;47.416;19.402;2023-06-10T08:20:34;33.22;;;21.38;;
63050;SDS011;49136;47.416;19.402;2023-06-10T08:23:00;33.72;;;20.02;;
63050;SDS011;49136;47.416;19.402;2023-06-10T08:25:25;35.88;;;22.27;;
63050;SDS011;49136;47.416;19.402;2023-06-10T08:27:51;38.05;;;22.92;;
63050;SDS011;49136;47.416;19.402;2023-06-10T08:30:17;38.92;;;22.73;;
63050;SDS011;49136;47.416;19.402;2023-06-10T08:32:43;36.00;;;21.23;;
63050;SDS011;49136;47.416;19.402;2023-06-10T08:35:08;37.15;;;22.08;;
63050;SDS011;49136;47.416;19.402;2023-06-10T08:37:34;32.95;;;20.50;;
63050;SDS011;49136;47.416;19.402;2023-06-10T08:39:59;36.85;;;21.98;;
63050;SDS011;49136;47.416;19.402;2023-06-10T08:42:33;34.10;;;20.38;;
63050;SDS011;49136;47.416;19.402;2023-06-10T08:45:10;35.08;;;21.33;;
63050;SDS011;49136;47.416;19.402;2023-06-10T08:47:42;36.97;;;20.20;;
63050;SDS011;49136;47.416;19.402;2023-06-10T08:50:11;28.35;;;18.75;;
63050;SDS011;49136;47.416;19.402;2023-06-10T08:52:37;29.63;;;18.55;;
63050;SDS011;49136;47.416;19.402;2023-06-10T08:55:11;25.15;;;16.90;;
63050;SDS011;49136;47.416;19.402;2023-06-10T08:57:51;31.90;;;18.42;;
63050;SDS011;49136;47.416;19.402;2023-06-10T09:00:18;22.85;;;15.65;;
63050;SDS011;49136;47.416;19.402;2023-06-10T09:02:44;13.77;;;10.02;;
63050;SDS011;49136;47.416;19.402;2023-06-10T09:05:10;10.13;;;7.00;;
63050;SDS011;49136;47.416;19.402;2023-06-10T09:07:36;9.13;;;6.32;;
63050;SDS011;49136;47.416;19.402;2023-06-10T09:10:02;8.40;;;6.50;;
63050;SDS011;49136;47.416;19.402;2023-06-10T09:12:32;11.15;;;6.13;;
63050;SDS011;49136;47.416;19.402;2023-06-10T09:14:59;8.43;;;5.15;;
63050;SDS011;49136;47.416;19.402;2023-06-10T09:17:25;8.48;;;4.68;;
63050;SDS011;49136;47.416;19.402;2023-06-10T09:19:51;6.35;;;5.05;;
63050;SDS011;49136;47.416;19.402;2023-06-10T09:22:18;6.53;;;4.60;;
63050;SDS011;49136;47.416;19.402;2023-06-10T09:24:44;7.03;;;5.55;;
63050;SDS011;49136;47.416;19.402;2023-06-10T09:27:11;9.35;;;5.38;;
63050;SDS011;49136;47.416;19.402;2023-06-10T09:29:47;6.55;;;5.18;;
63050;SDS011;49136;47.416;19.402;2023-06-10T09:32:17;6.18;;;5.07;;
63050;SDS011;49136;47.416;19.402;2023-06-10T09:34:43;6.43;;;4.88;;
63050;SDS011;49136;47.416;19.402;2023-06-10T09:37:09;9.25;;;5.70;;
63050;SDS011;49136;47.416;19.402;2023-06-10T09:39:37;10.23;;;4.97;;
63050;SDS011;49136;47.416;19.402;2023-06-10T09:42:10;9.05;;;5.32;;
63050;SDS011;49136;47.416;19.402;2023-06-10T09:44:41;7.00;;;5.60;;
63050;SDS011;49136;47.416;19.402;2023-06-10T09:47:06;10.52;;;6.25;;
63050;SDS011;49136;47.416;19.402;2023-06-10T09:49:32;8.90;;;6.90;;
63050;SDS011;49136;47.416;19.402;2023-06-10T09:51:57;12.70;;;7.22;;
63050;SDS011;49136;47.416;19.402;2023-06-10T09:54:24;12.50;;;7.22;;
63050;SDS011;49136;47.416;19.402;2023-06-10T09:56:56;10.35;;;7.18;;
63050;SDS011;49136;47.416;19.402;2023-06-10T09:59:30;11.60;;;8.35;;
63050;SDS011;49136;47.416;19.402;2023-06-10T10:01:57;13.88;;;7.38;;
63050;SDS011;49136;47.416;19.402;2023-06-10T10:04:25;10.60;;;6.50;;
63050;SDS011;49136;47.416;19.402;2023-06-10T10:06:51;14.88;;;5.78;;
63050;SDS011;49136;47.416;19.402;2023-06-10T10:09:19;8.35;;;5.65;;
63050;SDS011;49136;47.416;19.402;2023-06-10T10:11:44;7.95;;;6.45;;
63050;SDS011;49136;47.416;19.402;2023-06-10T10:14:11;10.75;;;7.18;;
63050;SDS011;49136;47.416;19.402;2023-06-10T10:16:40;12.25;;;7.30;;
63050;SDS011;49136;47.416;19.402;2023-06-10T10:19:18;10.23;;;7.60;;
63050;SDS011;49136;47.416;19.402;2023-06-10T10:22:10;11.00;;;7.70;;
63050;SDS011;49136;47.416;19.402;2023-06-10T10:24:36;11.10;;;7.70;;
63050;SDS011;49136;47.416;19.402;2023-06-10T10:27:07;15.93;;;9.07;;
63050;SDS011;49136;47.416;19.402;2023-06-10T10:29:39;12.52;;;8.65;;
63050;SDS011;49136;47.416;19.402;2023-06-10T10:32:06;12.48;;;8.88;;
63050;SDS011;49136;47.416;19.402;2023-06-10T10:37:32;11.15;;;8.13;;
63050;SDS011;49136;47.416;19.402;2023-06-10T10:39:58;9.27;;;7.78;;
63050;SDS011;49136;47.416;19.402;2023-06-10T10:42:25;11.85;;;8.68;;
63050;SDS011;49136;47.416;19.402;2023-06-10T10:44:51;20.70;;;9.80;;
63050;SDS011;49136;47.416;19.402;2023-06-10T10:47:18;13.38;;;9.35;;
63050;SDS011;49136;47.416;19.402;2023-06-10T10:49:47;14.90;;;10.50;;
63050;SDS011;49136;47.416;19.402;2023-06-10T10:52:15;20.67;;;10.88;;
63050;SDS011;49136;47.416;19.402;2023-06-10T10:54:43;14.43;;;10.38;;
63050;SDS011;49136;47.416;19.402;2023-06-10T10:59:59;15.18;;;10.63;;
63050;SDS011;49136;47.416;19.402;2023-06-10T11:04:58;11.93;;;6.97;;
63050;SDS011;49136;47.416;19.402;2023-06-10T11:07:24;11.25;;;7.22;;
63050;SDS011;49136;47.416;19.402;2023-06-10T11:10:28;9.90;;;5.90;;
63050;SDS011;49136;47.416;19.402;2023-06-10T11:15:10;5.50;;;4.75;;
63050;SDS011;49136;47.416;19.402;2023-06-10T11:17:37;6.22;;;5.30;;
63050;SDS011;49136;47.416;19.402;2023-06-10T11:20:03;6.15;;;4.90;;
63050;SDS011;49136;47.416;19.402;2023-06-10T11:22:29;6.75;;;4.88;;
63050;SDS011;49136;47.416;19.402;2023-06-10T11:24:54;8.18;;;5.47;;
63050;SDS011;49136;47.416;19.402;2023-06-10T11:27:21;8.30;;;5.93;;
63050;SDS011;49136;47.416;19.402;2023-06-10T11:32:32;10.45;;;5.70;;
63050;SDS011;49136;47.416;19.402;2023-06-10T11:35:00;7.65;;;5.85;;
63050;SDS011;49136;47.416;19.402;2023-06-10T11:37:28;6.20;;;5.40;;
63050;SDS011;49136;47.416;19.402;2023-06-10T11:39:54;8.25;;;6.10;;
63050;SDS011;49136;47.416;19.402;2023-06-10T11:42:23;8.38;;;6.25;;
63050;SDS011;49136;47.416;19.402;2023-06-10T11:44:50;10.02;;;7.43;;
63050;SDS011;49136;47.416;19.402;2023-06-10T11:47:16;10.80;;;8.52;;
63050;SDS011;49136;47.416;19.402;2023-06-10T11:49:42;15.93;;;8.68;;
63050;SDS011;49136;47.416;19.402;2023-06-10T11:52:08;10.70;;;8.85;;
63050;SDS011;49136;47.416;19.402;2023-06-10T11:54:33;12.57;;;8.73;;
63050;SDS011;49136;47.416;19.402;2023-06-10T11:56:59;15.50;;;8.35;;
63050;SDS011;49136;47.416;19.402;2023-06-10T11:59:28;10.98;;;7.32;;
63050;SDS011;49136;47.416;19.402;2023-06-10T12:01:54;9.23;;;6.10;;
63050;SDS011;49136;47.416;19.402;2023-06-10T12:04:20;6.65;;;5.93;;
63050;SDS011;49136;47.416;19.402;2023-06-10T12:06:48;5.70;;;5.10;;
63050;SDS011;49136;47.416;19.402;2023-06-10T12:11:57;10.68;;;4.97;;
63050;SDS011;49136;47.416;19.402;2023-06-10T12:20:02;7.68;;;4.20;;
63050;SDS011;49136;47.416;19.402;2023-06-10T12:22:36;4.60;;;3.70;;
63050;SDS011;49136;47.416;19.402;2023-06-10T12:25:08;3.70;;;3.17;;
63050;SDS011;49136;47.416;19.402;2023-06-10T12:27:35;6.00;;;3.33;;
63050;SDS011;49136;47.416;19.402;2023-06-10T12:30:03;3.25;;;2.95;;
63050;SDS011;49136;47.416;19.402;2023-06-10T12:32:42;3.80;;;3.38;;
63050;SDS011;49136;47.416;19.402;2023-06-10T12:35:09;6.00;;;4.53;;
63050;SDS011;49136;47.416;19.402;2023-06-10T12:37:37;5.38;;;4.78;;
63050;SDS011;49136;47.416;19.402;2023-06-10T12:40:04;6.03;;;4.78;;
63050;SDS011;49136;47.416;19.402;2023-06-10T12:42:36;5.20;;;4.70;;
63050;SDS011;49136;47.416;19.402;2023-06-10T12:45:03;5.78;;;4.63;;
63050;SDS011;49136;47.416;19.402;2023-06-10T12:47:38;8.63;;;4.10;;
63050;SDS011;49136;47.416;19.402;2023-06-10T12:50:07;5.60;;;4.28;;
63050;SDS011;49136;47.416;19.402;2023-06-10T12:52:32;4.20;;;3.80;;
63050;SDS011;49136;47.416;19.402;2023-06-10T12:54:58;8.20;;;4.10;;
63050;SDS011;49136;47.416;19.402;2023-06-10T12:57:25;4.65;;;3.90;;
63050;SDS011;49136;47.416;19.402;2023-06-10T12:59:51;5.25;;;4.05;;
63050;SDS011;49136;47.416;19.402;2023-06-10T13:04:49;5.72;;;4.22;;
63050;SDS011;49136;47.416;19.402;2023-06-10T13:07:17;5.50;;;4.28;;
63050;SDS011;49136;47.416;19.402;2023-06-10T13:09:43;7.80;;;4.57;;
63050;SDS011;49136;47.416;19.402;2023-06-10T13:12:08;5.55;;;4.15;;
63050;SDS011;49136;47.416;19.402;2023-06-10T13:14:35;5.30;;;4.47;;
63050;SDS011;49136;47.416;19.402;2023-06-10T13:17:02;7.85;;;4.78;;
63050;SDS011;49136;47.416;19.402;2023-06-10T13:19:30;6.07;;;5.05;;
63050;SDS011;49136;47.416;19.402;2023-06-10T13:21:57;5.45;;;4.95;;
63050;SDS011;49136;47.416;19.402;2023-06-10T13:24:22;5.70;;;5.10;;
63050;SDS011;49136;47.416;19.402;2023-06-10T13:26:47;8.80;;;5.10;;
63050;SDS011;49136;47.416;19.402;2023-06-10T13:29:13;8.80;;;5.10;;
63050;SDS011;49136;47.416;19.402;2023-06-10T13:31:39;11.80;;;6.18;;
63050;SDS011;49136;47.416;19.402;2023-06-10T13:34:05;6.63;;;5.35;;
63050;SDS011;49136;47.416;19.402;2023-06-10T13:36:31;19.23;;;6.50;;
63050;SDS011;49136;47.416;19.402;2023-06-10T13:38:57;8.13;;;5.15;;
63050;SDS011;49136;47.416;19.402;2023-06-10T13:41:22;7.13;;;5.60;;
63050;SDS011;49136;47.416;19.402;2023-06-10T13:43:47;6.55;;;5.10;;
63050;SDS011;49136;47.416;19.402;2023-06-10T13:46:13;5.53;;;4.68;;
63050;SDS011;49136;47.416;19.402;2023-06-10T13:48:38;7.65;;;4.85;;
63050;SDS011;49136;47.416;19.402;2023-06-10T13:51:04;5.88;;;4.70;;
63050;SDS011;49136;47.416;19.402;2023-06-10T13:53:31;5.93;;;4.85;;
63050;SDS011;49136;47.416;19.402;2023-06-10T13:55:56;5.57;;;4.82;;
63050;SDS011;49136;47.416;19.402;2023-06-10T13:58:22;7.97;;;4.70;;
63050;SDS011;49136;47.416;19.402;2023-06-10T14:00:47;5.20;;;4.65;;
63050;SDS011;49136;47.416;19.402;2023-06-10T14:03:13;5.32;;;4.65;;
63050;SDS011;49136;47.416;19.402;2023-06-10T14:05:40;6.53;;;4.82;;
63050;SDS011;49136;47.416;19.402;2023-06-10T14:08:06;5.88;;;4.63;;
63050;SDS011;49136;47.416;19.402;2023-06-10T14:10:32;5.80;;;5.20;;
63050;SDS011;49136;47.416;19.402;2023-06-10T14:13:00;8.55;;;4.95;;
63050;SDS011;49136;47.416;19.402;2023-06-10T14:15:25;7.78;;;5.63;;
63050;SDS011;49136;47.416;19.402;2023-06-10T14:17:51;11.20;;;5.57;;
63050;SDS011;49136;47.416;19.402;2023-06-10T14:20:16;7.13;;;5.00;;
63050;SDS011;49136;47.416;19.402;2023-06-10T14:22:42;6.07;;;5.18;;
63050;SDS011;49136;47.416;19.402;2023-06-10T14:25:07;11.20;;;5.22;;
63050;SDS011;49136;47.416;19.402;2023-06-10T14:27:33;5.82;;;4.75;;
63050;SDS011;49136;47.416;19.402;2023-06-10T14:29:58;7.60;;;4.63;;
63050;SDS011;49136;47.416;19.402;2023-06-10T14:32:24;14.52;;;5.15;;
63050;SDS011;49136;47.416;19.402;2023-06-10T14:34:49;5.30;;;4.75;;
63050;SDS011;49136;47.416;19.402;2023-06-10T14:37:14;6.97;;;5.05;;
63050;SDS011;49136;47.416;19.402;2023-06-10T14:39:40;6.55;;;4.72;;
63050;SDS011;49136;47.416;19.402;2023-06-10T14:42:05;6.20;;;5.25;;